Time;durP1;ratioP1;P1;durP2;ratioP2;P2;SDS_P1;SDS_P2;PMS_P1;PMS_P2;Temp;Humidity;BMP_temperature;BMP_pressure;BME280_temperature;BME280_humidity;BME280_pressure;Samples;Min_cycle;Max_cycle;Signal;HPM_P1;HPM_P2
2021/09/13 00:01:20;;;;;;;2.92;2.40;;;16.30;99.90;;;;;;5072657;28;20036;-47
2021/09/13 00:03:45;;;;;;;4.57;2.90;;;16.40;99.90;;;;;;5072101;28;20079;-50
2021/09/13 00:06:11;;;;;;;4.85;2.08;;;16.30;99.90;;;;;;5072603;28;20052;-47
2021/09/13 00:08:36;;;;;;;2.60;2.40;;;16.30;99.90;;;;;;5070924;28;20489;-47
2021/09/13 00:11:02;;;;;;;4.57;3.25;;;16.20;99.90;;;;;;5072528;28;20028;-48
2021/09/13 00:13:27;;;;;;;5.70;2.90;;;16.20;99.90;;;;;;5072205;28;20482;-50
2021/09/13 00:15:53;;;;;;;8.02;2.97;;;16.20;99.90;;;;;;5072448;28;20436;-48
2021/09/13 00:18:18;;;;;;;4.03;2.88;;;16.20;99.90;;;;;;5072194;28;20119;-48
2021/09/13 00:20:44;;;;;;;2.53;2.33;;;16.10;99.90;;;;;;5072193;28;20107;-47
2021/09/13 00:23:09;;;;;;;7.43;2.30;;;16.10;99.90;;;;;;5071880;28;20036;-49
2021/09/13 00:25:35;;;;;;;5.18;2.97;;;16.10;99.90;;;;;;5072234;28;20026;-47
2021/09/13 00:28:01;;;;;;;6.57;4.68;;;16.00;99.90;;;;;;5071874;28;20432;-49
2021/09/13 00:30:26;;;;;;;6.75;4.32;;;16.00;99.90;;;;;;5072036;28;20017;-50
2021/09/13 00:32:52;;;;;;;7.68;6.25;;;16.00;99.90;;;;;;5071940;28;20021;-49
2021/09/13 00:35:17;;;;;;;5.45;4.00;;;16.00;99.90;;;;;;5071745;28;20031;-47
2021/09/13 00:37:43;;;;;;;4.78;2.45;;;16.00;99.90;;;;;;5071572;28;20059;-51
2021/09/13 00:40:09;;;;;;;4.53;2.63;;;15.90;99.90;;;;;;5071829;28;20050;-47
2021/09/13 00:42:35;;;;;;;4.43;2.55;;;15.90;99.90;;;;;;5071612;28;20029;-47
2021/09/13 00:45:01;;;;;;;3.38;2.50;;;15.90;99.90;;;;;;5071634;28;20048;-51
2021/09/13 00:47:27;;;;;;;5.90;2.17;;;15.80;99.90;;;;;;5071652;28;20021;-49
2021/09/13 00:49:52;;;;;;;6.75;2.63;;;15.80;99.90;;;;;;5070691;28;20036;-47
2021/09/13 00:52:18;;;;;;;2.88;2.40;;;15.80;99.90;;;;;;5071379;28;20028;-48
2021/09/13 00:54:45;;;;;;;5.35;2.90;;;15.80;99.90;;;;;;5071481;28;20081;-49
2021/09/13 00:57:11;;;;;;;4.82;2.40;;;15.80;99.90;;;;;;5072236;28;20078;-45
2021/09/13 00:59:36;;;;;;;4.20;2.83;;;15.80;99.90;;;;;;5072528;28;20503;-47
2021/09/13 01:02:02;;;;;;;4.45;2.97;;;15.80;99.90;;;;;;5071328;28;20025;-50
2021/09/13 01:04:27;;;;;;;2.65;2.45;;;15.80;99.90;;;;;;5071324;28;20465;-52
2021/09/13 01:06:53;;;;;;;3.05;2.20;;;15.80;99.90;;;;;;5071295;28;20157;-51
2021/09/13 01:09:19;;;;;;;3.45;2.60;;;15.70;99.90;;;;;;5071375;28;20033;-49
2021/09/13 01:11:45;;;;;;;7.00;2.78;;;15.70;99.90;;;;;;5071149;28;20025;-49
2021/09/13 01:14:10;;;;;;;2.78;2.58;;;15.60;99.90;;;;;;5071149;28;20033;-49
2021/09/13 01:16:36;;;;;;;6.50;3.47;;;15.60;99.90;;;;;;5071157;28;20100;-47
2021/09/13 01:19:02;;;;;;;2.90;2.70;;;15.50;99.90;;;;;;5070874;28;20052;-51
2021/09/13 01:21:28;;;;;;;6.60;2.75;;;15.50;99.90;;;;;;5070883;28;20028;-48
2021/09/13 01:23:53;;;;;;;7.20;3.20;;;15.40;99.90;;;;;;5070835;28;20547;-50
2021/09/13 01:26:19;;;;;;;3.08;2.72;;;15.40;99.90;;;;;;5070977;28;20040;-49
2021/09/13 01:28:46;;;;;;;7.10;3.17;;;15.30;99.90;;;;;;5070810;28;20029;-49
2021/09/13 01:31:11;;;;;;;11.65;3.50;;;15.30;99.90;;;;;;5070999;28;20024;-50
2021/09/13 01:33:37;;;;;;;7.45;2.85;;;15.30;99.90;;;;;;5070850;28;20020;-50
2021/09/13 01:36:03;;;;;;;3.90;3.13;;;15.30;99.90;;;;;;5070522;28;20296;-47
2021/09/13 01:38:31;;;;;;;4.28;3.58;;;15.20;99.90;;;;;;5070570;28;20029;-46
2021/09/13 01:40:56;;;;;;;4.53;3.30;;;15.20;99.90;;;;;;5070717;28;20028;-49
2021/09/13 01:43:22;;;;;;;3.63;3.25;;;15.10;99.90;;;;;;5070633;28;20154;-48
2021/09/13 01:45:47;;;;;;;8.77;4.97;;;15.20;99.90;;;;;;5070780;28;20081;-50
2021/09/13 01:48:13;;;;;;;7.75;3.60;;;15.20;99.90;;;;;;5070614;28;20029;-51
2021/09/13 01:50:40;;;;;;;3.90;3.58;;;15.10;99.90;;;;;;5070567;28;20103;-51
2021/09/13 01:53:05;;;;;;;4.28;3.88;;;15.20;99.90;;;;;;5070969;28;20408;-48
2021/09/13 01:55:31;;;;;;;6.80;3.95;;;15.20;99.90;;;;;;5070616;28;20055;-47
2021/09/13 01:57:56;;;;;;;10.10;4.53;;;15.20;99.90;;;;;;5069007;28;20027;-48
2021/09/13 02:00:22;;;;;;;5.07;4.40;;;15.20;99.90;;;;;;5070358;28;20032;-51
2021/09/13 02:02:47;;;;;;;4.57;3.85;;;15.30;99.90;;;;;;5070319;28;20017;-49
2021/09/13 02:05:13;;;;;;;3.67;3.40;;;15.30;99.90;;;;;;5070321;28;20027;-50
2021/09/13 02:07:38;;;;;;;4.07;3.72;;;15.40;99.90;;;;;;5070186;28;20036;-50
2021/09/13 02:10:05;;;;;;;4.88;3.60;;;15.50;99.90;;;;;;5070401;28;20030;-47
2021/09/13 02:12:31;;;;;;;8.63;4.32;;;15.50;99.90;;;;;;5070409;28;20063;-48
2021/09/13 02:14:57;;;;;;;6.57;3.75;;;15.40;99.90;;;;;;5070450;28;20454;-46
2021/09/13 02:17:22;;;;;;;3.78;3.35;;;15.40;99.90;;;;;;5070440;28;20099;-47
2021/09/13 02:19:48;;;;;;;6.95;3.90;;;15.30;99.90;;;;;;5070333;28;20039;-46
2021/09/13 02:22:14;;;;;;;5.88;3.90;;;15.20;99.90;;;;;;5070586;28;20025;-49
2021/09/13 02:24:40;;;;;;;7.97;3.78;;;15.10;99.90;;;;;;5070202;28;20033;-47
2021/09/13 02:27:06;;;;;;;4.07;3.67;;;15.00;99.90;;;;;;5070239;28;20021;-50
2021/09/13 02:29:31;;;;;;;3.70;3.28;;;15.00;99.90;;;;;;5070051;28;20466;-47
2021/09/13 02:31:57;;;;;;;5.93;3.60;;;15.00;99.90;;;;;;5070704;28;20028;-51
2021/09/13 02:34:22;;;;;;;5.40;3.65;;;14.90;99.90;;;;;;5069904;28;20280;-47
2021/09/13 02:36:48;;;;;;;6.45;3.45;;;14.90;99.90;;;;;;5070247;28;20034;-47
2021/09/13 02:39:13;;;;;;;4.85;3.33;;;14.90;99.90;;;;;;5069948;28;20406;-48
2021/09/13 02:41:39;;;;;;;7.40;3.83;;;14.80;99.90;;;;;;5068747;28;20498;-50
2021/09/13 02:44:05;;;;;;;5.60;3.67;;;14.80;99.90;;;;;;5070071;28;20106;-48
2021/09/13 02:46:30;;;;;;;5.65;3.95;;;14.80;99.90;;;;;;5070178;28;20031;-48
2021/09/13 02:48:56;;;;;;;4.95;4.50;;;14.80;99.90;;;;;;5069834;28;20016;-49
2021/09/13 02:51:22;;;;;;;9.77;4.35;;;14.80;99.90;;;;;;5070103;28;20060;-50
2021/09/13 02:53:47;;;;;;;4.47;4.07;;;14.80;99.90;;;;;;5069848;28;20032;-49
2021/09/13 02:56:13;;;;;;;7.72;4.20;;;14.90;99.90;;;;;;5070104;28;20024;-51
2021/09/13 02:58:38;;;;;;;6.35;4.20;;;14.90;99.90;;;;;;5069846;28;20063;-48
2021/09/13 03:01:04;;;;;;;7.10;4.65;;;14.90;99.90;;;;;;5070054;28;20032;-48
2021/09/13 03:03:29;;;;;;;5.65;4.20;;;14.90;99.90;;;;;;5069830;28;20035;-46
2021/09/13 03:05:55;;;;;;;4.55;3.75;;;14.90;99.90;;;;;;5069897;28;20530;-47
2021/09/13 03:08:20;;;;;;;4.70;4.22;;;14.80;99.90;;;;;;5069659;28;20025;-47
2021/09/13 03:10:46;;;;;;;5.75;4.40;;;14.90;99.90;;;;;;5068745;28;20020;-48
2021/09/13 03:13:12;;;;;;;4.85;3.65;;;14.80;99.90;;;;;;5071050;28;20055;-47
2021/09/13 03:15:37;;;;;;;6.35;4.00;;;14.80;99.90;;;;;;5073836;28;20024;-49
2021/09/13 03:18:03;;;;;;;5.43;3.97;;;14.80;99.90;;;;;;5073592;28;20098;-48
2021/09/13 03:20:28;;;;;;;8.68;4.32;;;14.80;99.90;;;;;;5073555;28;20489;-47
2021/09/13 03:22:54;;;;;;;5.00;3.90;;;14.80;99.90;;;;;;5073333;28;20082;-47
2021/09/13 03:25:20;;;;;;;6.78;3.58;;;14.70;99.90;;;;;;5073345;28;20028;-48
2021/09/13 03:27:45;;;;;;;4.50;3.75;;;14.70;99.90;;;;;;5073203;28;20032;-48
2021/09/13 03:30:11;;;;;;;4.22;3.83;;;14.70;99.90;;;;;;5073269;28;20060;-47
2021/09/13 03:32:37;;;;;;;9.68;4.15;;;14.60;99.90;;;;;;5073584;28;20051;-48
2021/09/13 03:35:02;;;;;;;5.57;4.05;;;14.60;99.90;;;;;;5072877;28;20032;-47
2021/09/13 03:37:28;;;;;;;5.07;4.20;;;14.60;99.90;;;;;;5072738;28;20029;-46
2021/09/13 03:39:53;;;;;;;7.00;4.07;;;14.60;99.90;;;;;;5071724;28;20028;-48
2021/09/13 03:42:19;;;;;;;7.25;4.03;;;14.60;99.90;;;;;;5072975;28;20107;-48
2021/09/13 03:44:44;;;;;;;6.80;4.40;;;14.60;99.90;;;;;;5072866;28;20233;-47
2021/09/13 03:47:10;;;;;;;6.72;4.30;;;14.60;99.90;;;;;;5073277;28;20110;-48
2021/09/13 03:49:35;;;;;;;4.78;3.67;;;14.60;99.90;;;;;;5073108;28;20081;-52
2021/09/13 03:52:01;;;;;;;4.30;3.90;;;14.60;99.90;;;;;;5072834;28;20021;-47
2021/09/13 03:54:27;;;;;;;8.85;4.32;;;14.50;99.90;;;;;;5072995;28;20098;-49
2021/09/13 03:56:52;;;;;;;7.18;4.05;;;14.50;99.90;;;;;;5072627;28;20401;-48
2021/09/13 03:59:18;;;;;;;5.53;4.30;;;14.50;99.90;;;;;;5072486;28;20027;-47
2021/09/13 04:01:43;;;;;;;6.30;4.10;;;14.50;99.90;;;;;;5072562;28;20037;-49
2021/09/13 04:04:10;;;;;;;8.02;5.93;;;14.50;99.90;;;;;;5072462;28;20102;-49
2021/09/13 04:11:38;;;;;;;5.13;4.57;;;14.50;99.90;;;;;;5072581;28;20086;-50
2021/09/13 04:14:03;;;;;;;4.72;4.32;;;14.50;99.90;;;;;;5072475;28;20417;-48
2021/09/13 04:16:29;;;;;;;4.32;3.92;;;14.40;99.90;;;;;;5072163;28;20028;-50
2021/09/13 04:18:54;;;;;;;8.70;4.38;;;14.40;99.90;;;;;;5072007;28;20030;-51
2021/09/13 04:21:20;;;;;;;9.20;4.35;;;14.40;99.90;;;;;;5072352;28;20090;-47
2021/09/13 04:23:45;;;;;;;5.88;4.57;;;14.40;99.90;;;;;;5071708;28;20045;-49
2021/09/13 04:26:11;;;;;;;8.25;4.75;;;14.30;99.90;;;;;;5072423;28;20035;-46
2021/09/13 04:28:36;;;;;;;5.45;4.05;;;14.30;99.90;;;;;;5071838;28;20045;-48
2021/09/13 04:31:02;;;;;;;4.85;3.95;;;14.30;99.90;;;;;;5071954;28;20506;-46
2021/09/13 04:33:27;;;;;;;7.78;4.78;;;14.30;99.90;;;;;;5071859;28;20024;-46
2021/09/13 04:35:53;;;;;;;6.82;4.63;;;14.30;99.90;;;;;;5071591;28;20029;-48
2021/09/13 04:38:18;;;;;;;4.63;3.92;;;14.30;99.90;;;;;;5071760;28;20462;-49
2021/09/13 04:40:44;;;;;;;4.45;3.78;;;14.30;99.90;;;;;;5071806;28;20024;-48
2021/09/13 04:43:09;;;;;;;11.38;4.68;;;14.30;99.90;;;;;;5071587;28;20021;-48
2021/09/13 04:45:35;;;;;;;8.27;4.95;;;14.30;99.90;;;;;;5071692;28;20031;-46
2021/09/13 04:48:00;;;;;;;5.07;4.15;;;14.30;99.90;;;;;;5071469;28;20035;-50
2021/09/13 04:50:26;;;;;;;6.47;3.97;;;14.30;99.90;;;;;;5071614;28;20099;-47
2021/09/13 04:52:51;;;;;;;5.88;3.85;;;14.30;99.90;;;;;;5071441;28;20028;-48
2021/09/13 04:55:17;;;;;;;5.38;4.13;;;14.30;99.90;;;;;;5071483;28;20040;-49
2021/09/13 04:57:42;;;;;;;11.55;4.85;;;14.30;99.90;;;;;;5071140;28;20477;-49
2021/09/13 05:00:08;;;;;;;5.65;4.93;;;14.30;99.90;;;;;;5071439;28;20064;-51
2021/09/13 05:02:34;;;;;;;5.25;4.68;;;14.30;99.90;;;;;;5071321;28;20032;-47
2021/09/13 05:04:59;;;;;;;11.70;5.00;;;14.30;99.90;;;;;;5071209;28;20039;-48
2021/09/13 05:07:27;;;;;;;8.57;4.63;;;14.30;99.90;;;;;;5070939;28;20032;-48
2021/09/13 05:09:52;;;;;;;10.18;4.63;;;14.30;99.90;;;;;;5071377;28;20020;-48
2021/09/13 05:12:18;;;;;;;9.13;5.07;;;14.30;99.90;;;;;;5071025;28;20027;-47
2021/09/13 05:14:43;;;;;;;7.53;4.50;;;14.20;99.90;;;;;;5071072;28;20516;-46
2021/09/13 05:17:09;;;;;;;6.75;5.13;;;14.20;99.90;;;;;;5071479;28;20420;-46
2021/09/13 05:19:34;;;;;;;6.07;4.32;;;14.20;99.90;;;;;;5071160;28;20036;-46
2021/09/13 05:22:00;;;;;;;7.65;4.53;;;14.10;99.90;;;;;;5070824;28;20103;-49
2021/09/13 05:24:25;;;;;;;7.63;4.07;;;14.10;99.90;;;;;;5071031;28;20508;-46
2021/09/13 05:26:51;;;;;;;5.90;4.35;;;14.10;99.90;;;;;;5069715;28;20462;-46
2021/09/13 05:29:16;;;;;;;5.32;4.22;;;14.10;99.90;;;;;;5070622;28;20031;-45
2021/09/13 05:31:42;;;;;;;7.72;4.00;;;14.10;99.90;;;;;;5070758;28;20036;-46
2021/09/13 05:34:07;;;;;;;6.35;4.57;;;14.10;99.90;;;;;;5070617;28;20406;-48
2021/09/13 05:36:33;;;;;;;8.23;3.65;;;14.20;99.90;;;;;;5070381;28;20105;-50
2021/09/13 05:38:58;;;;;;;6.28;4.20;;;14.20;99.90;;;;;;5070640;28;20485;-45
2021/09/13 05:41:24;;;;;;;5.63;4.07;;;14.20;99.90;;;;;;5071120;28;20469;-46
2021/09/13 05:43:49;;;;;;;7.55;4.40;;;14.30;99.90;;;;;;5070540;28;20029;-46
2021/09/13 05:46:15;;;;;;;5.35;4.85;;;14.30;99.90;;;;;;5070713;28;20032;-49
2021/09/13 05:48:40;;;;;;;5.80;5.20;;;14.30;99.90;;;;;;5070625;28;20478;-48
2021/09/13 05:51:06;;;;;;;10.77;5.28;;;14.40;99.90;;;;;;5071018;28;20028;-50
2021/09/13 05:53:31;;;;;;;8.15;5.35;;;14.40;99.90;;;;;;5070789;28;20089;-48
2021/09/13 05:55:57;;;;;;;7.95;6.22;;;14.40;99.90;;;;;;5070751;28;20027;-47
2021/09/13 05:58:22;;;;;;;9.98;6.68;;;14.40;99.90;;;;;;5070499;28;20044;-49
2021/09/13 06:00:48;;;;;;;9.93;5.43;;;14.50;99.90;;;;;;5070567;28;20107;-50
2021/09/13 06:03:13;;;;;;;7.50;5.25;;;14.60;99.90;;;;;;5070512;28;20123;-46
2021/09/13 06:05:39;;;;;;;7.22;4.93;;;14.70;99.90;;;;;;5070495;28;20465;-49
2021/09/13 06:08:05;;;;;;;5.75;4.47;;;14.70;99.90;;;;;;5070381;28;20501;-48
2021/09/13 06:10:30;;;;;;;6.80;5.80;;;14.80;99.90;;;;;;5070600;28;20124;-51
2021/09/13 06:12:56;;;;;;;10.73;6.13;;;14.90;99.90;;;;;;5070525;28;20024;-47
2021/09/13 06:15:21;;;;;;;10.55;9.40;;;15.00;99.90;;;;;;5070488;28;20025;-48
2021/09/13 06:17:47;;;;;;;6.90;5.75;;;15.20;99.90;;;;;;5070126;28;20040;-48
2021/09/13 06:20:14;;;;;;;6.00;5.05;;;15.30;99.90;;;;;;5070269;28;20031;-48
2021/09/13 06:22:40;;;;;;;9.70;5.43;;;15.40;99.90;;;;;;5070185;28;20063;-46
2021/09/13 06:25:06;;;;;;;8.18;5.45;;;15.50;99.90;;;;;;5070330;28;20036;-51
2021/09/13 06:27:32;;;;;;;7.30;5.25;;;15.60;99.90;;;;;;5070159;28;20105;-46
2021/09/13 06:29:57;;;;;;;12.93;5.65;;;15.70;99.90;;;;;;5070201;28;20052;-48
2021/09/13 06:32:23;;;;;;;10.20;5.53;;;15.70;99.90;;;;;;5070136;28;20481;-50
2021/09/13 06:34:48;;;;;;;8.30;6.00;;;15.70;99.90;;;;;;5070205;28;20035;-47
2021/09/13 06:37:14;;;;;;;6.53;5.85;;;15.60;99.90;;;;;;5070172;28;20043;-47
2021/09/13 06:39:40;;;;;;;6.82;5.97;;;15.50;99.90;;;;;;5070236;28;20149;-46
2021/09/13 06:42:06;;;;;;;7.03;5.90;;;15.60;99.90;;;;;;5070195;28;20028;-49
2021/09/13 06:44:31;;;;;;;11.32;6.10;;;15.70;99.90;;;;;;5070207;28;20032;-51
2021/09/13 06:47:06;;;;;;;7.57;6.00;;;15.80;99.90;;;;;;5070267;28;20024;-51
2021/09/13 06:49:33;;;;;;;15.25;6.60;;;15.90;99.90;;;;;;5073165;28;20029;-48
2021/09/13 06:51:59;;;;;;;9.35;5.90;;;15.80;99.90;;;;;;5073811;28;20028;-49
2021/09/13 06:54:26;;;;;;;8.25;6.85;;;15.80;99.90;;;;;;5073877;28;20028;-48
2021/09/13 06:56:53;;;;;;;7.20;5.63;;;15.90;99.90;;;;;;5074511;28;20017;-46
2021/09/13 06:59:18;;;;;;;9.07;6.35;;;15.90;99.90;;;;;;5089517;28;20029;-45
2021/09/13 07:01:44;;;;;;;8.52;6.20;;;15.90;99.90;;;;;;5073992;28;20378;-47
2021/09/13 07:04:09;;;;;;;6.38;5.72;;;15.90;99.90;;;;;;5072344;28;20028;-48
2021/09/13 07:06:35;;;;;;;10.68;5.93;;;16.00;99.90;;;;;;5073870;28;20037;-48
2021/09/13 07:09:01;;;;;;;6.50;5.60;;;16.10;99.90;;;;;;5073284;28;20112;-50
2021/09/13 07:11:26;;;;;;;7.22;5.72;;;16.20;99.90;;;;;;5073486;28;20028;-47
2021/09/13 07:13:52;;;;;;;8.77;5.60;;;16.30;99.90;;;;;;5073354;28;20028;-47
2021/09/13 07:16:20;;;;;;;8.35;5.22;;;16.40;99.90;;;;;;5073476;28;20071;-50
2021/09/13 07:18:47;;;;;;;10.07;5.82;;;16.50;99.90;;;;;;5073119;28;20032;-49
2021/09/13 07:21:12;;;;;;;10.02;5.95;;;16.60;99.90;;;;;;5073297;28;20086;-51
2021/09/13 07:23:38;;;;;;;8.43;5.50;;;16.70;99.90;;;;;;5096953;22;20044;-54
2021/09/13 07:26:03;;;;;;;6.25;5.22;;;16.70;99.90;;;;;;5094417;28;20055;-46
2021/09/13 07:28:29;;;;;;;11.40;6.05;;;16.70;99.90;;;;;;5109140;28;20020;-52
2021/09/13 07:30:55;;;;;;;7.88;6.63;;;16.80;99.90;;;;;;5093744;28;20016;-51
2021/09/13 07:33:20;;;;;;;8.93;5.22;;;16.90;99.90;;;;;;5093505;28;20046;-48
2021/09/13 07:35:46;;;;;;;10.55;5.20;;;17.00;99.90;;;;;;5109211;28;20020;-53
2021/09/13 07:38:11;;;;;;;7.75;5.57;;;17.00;99.90;;;;;;5092982;28;20079;-48
2021/09/13 07:40:37;;;;;;;5.55;4.82;;;17.10;99.90;;;;;;5093480;28;20490;-47
2021/09/13 07:43:03;;;;;;;6.80;4.70;;;17.30;99.90;;;;;;5093495;28;20047;-48
2021/09/13 07:45:29;;;;;;;6.43;5.20;;;17.80;99.90;;;;;;5093430;28;20035;-48
2021/09/13 07:47:54;;;;;;;6.97;4.55;;;18.20;99.90;;;;;;5093148;28;20020;-51
2021/09/13 07:50:20;;;;;;;5.93;4.35;;;18.80;99.90;;;;;;5093501;28;20081;-47
2021/09/13 07:52:45;;;;;;;5.68;4.00;;;19.30;99.90;;;;;;5093429;28;20114;-52
2021/09/13 07:55:11;;;;;;;8.55;3.83;;;20.00;99.90;;;;;;5093148;28;20028;-48
2021/09/13 07:57:37;;;;;;;5.45;3.85;;;20.90;99.00;;;;;;5092324;28;20422;-50
2021/09/13 08:00:04;;;;;;;7.78;3.72;;;21.40;97.40;;;;;;5092565;28;20024;-46
2021/09/13 08:02:31;;;;;;;10.13;3.78;;;21.90;97.10;;;;;;5108799;28;20393;-50
2021/09/13 08:04:59;;;;;;;7.47;4.10;;;21.80;96.60;;;;;;5093024;28;20370;-47
2021/09/13 08:07:25;;;;;;;4.88;3.58;;;21.80;96.60;;;;;;5092540;28;20020;-47
2021/09/13 08:09:50;;;;;;;4.97;4.10;;;21.90;96.60;;;;;;5092758;28;20497;-49
2021/09/13 08:12:16;;;;;;;5.90;3.85;;;22.20;96.20;;;;;;5108591;28;20182;-51
2021/09/13 08:14:41;;;;;;;7.47;3.60;;;22.60;95.90;;;;;;5092897;28;20118;-51
2021/09/13 08:17:07;;;;;;;5.22;3.75;;;22.90;95.00;;;;;;5108045;28;20020;-54
2021/09/13 08:19:33;;;;;;;6.35;3.28;;;22.70;95.10;;;;;;5091941;28;20141;-51
2021/09/13 08:21:58;;;;;;;5.15;3.42;;;22.30;96.00;;;;;;5108460;28;20020;-53
2021/09/13 08:24:24;;;;;;;4.38;3.63;;;21.90;96.40;;;;;;5092297;28;20077;-48
2021/09/13 08:26:49;;;;;;;6.38;4.15;;;21.40;97.30;;;;;;5092968;28;20035;-49
2021/09/13 08:29:15;;;;;;;5.80;4.75;;;21.10;97.70;;;;;;5091856;28;20024;-51
2021/09/13 08:31:44;;;;;;;4.28;3.75;;;20.90;98.10;;;;;;5092566;28;20485;-53
2021/09/13 08:34:12;;;;;;;4.45;4.05;;;20.40;98.90;;;;;;5092579;28;20031;-49
2021/09/13 08:36:38;;;;;;;7.28;5.10;;;20.10;99.50;;;;;;5092735;28;20070;-48
2021/09/13 08:39:04;;;;;;;8.23;5.25;;;20.00;99.90;;;;;;5091933;28;20059;-47
2021/09/13 08:41:32;;;;;;;6.45;4.78;;;20.10;99.90;;;;;;5092932;28;20032;-48
2021/09/13 08:44:00;;;;;;;6.50;4.40;;;20.70;99.40;;;;;;5092394;28;20111;-48
2021/09/13 08:46:37;;;;;;;12.80;6.43;;;21.60;98.10;;;;;;5092227;28;20366;-50
2021/09/13 08:49:08;;;;;;;11.05;5.18;;;22.70;96.20;;;;;;5107232;28;20026;-47
2021/09/13 08:51:34;;;;;;;5.93;4.20;;;23.70;95.10;;;;;;5092006;28;20028;-49
2021/09/13 08:54:05;;;;;;;8.20;3.78;;;24.80;93.20;;;;;;5092359;28;20039;-49
2021/09/13 08:56:53;;;;;;;5.18;3.85;;;25.60;92.20;;;;;;5092364;28;20028;-48
2021/09/13 08:59:23;;;;;;;8.27;3.92;;;25.80;91.50;;;;;;5091903;28;20039;-50
2021/09/13 09:01:51;;;;;;;6.72;4.30;;;26.60;90.80;;;;;;5092242;28;20052;-51
2021/09/13 09:04:17;;;;;;;3.92;3.30;;;27.30;88.40;;;;;;5092088;28;20074;-47
2021/09/13 09:06:44;;;;;;;7.75;3.33;;;27.40;87.80;;;;;;5092056;28;20028;-48
2021/09/13 09:09:10;;;;;;;5.28;3.45;;;27.80;87.70;;;;;;5091189;28;20054;-55
2021/09/13 09:12:00;;;;;;;5.60;3.45;;;28.00;85.30;;;;;;5091039;28;20053;-48
2021/09/13 09:14:48;;;;;;;3.33;3.00;;;27.80;84.40;;;;;;5091726;28;20167;-51
2021/09/13 09:17:25;;;;;;;7.55;3.35;;;28.10;84.00;;;;;;5091254;28;20105;-48
2021/09/13 09:20:11;;;;;;;3.72;3.25;;;28.50;83.60;;;;;;5092032;28;20020;-46
2021/09/13 09:22:40;;;;;;;5.60;2.92;;;28.70;81.80;;;;;;5091543;28;20028;-48
2021/09/13 09:25:08;;;;;;;6.70;3.17;;;28.60;82.50;;;;;;5091658;28;20103;-49
2021/09/13 09:27:53;;;;;;;3.45;2.97;;;28.50;81.10;;;;;;5090931;28;20031;-45
2021/09/13 09:30:19;;;;;;;4.03;2.97;;;27.70;82.70;;;;;;5091592;28;20111;-47
2021/09/13 09:33:05;;;;;;;7.80;3.40;;;27.60;83.10;;;;;;5091209;28;20099;-46
2021/09/13 09:35:40;;;;;;;4.05;2.90;;;27.00;83.50;;;;;;5091197;28;20055;-46
2021/09/13 09:38:05;;;;;;;4.78;3.13;;;26.40;85.30;;;;;;5090951;28;20020;-47
2021/09/13 09:40:31;;;;;;;6.28;3.10;;;26.50;85.40;;;;;;5091272;28;20038;-48
2021/09/13 09:43:03;;;;;;;11.13;3.22;;;26.20;84.90;;;;;;5091346;28;20032;-47
2021/09/13 09:45:29;;;;;;;6.07;3.47;;;26.30;85.40;;;;;;5092281;28;20078;-51
2021/09/13 09:48:11;;;;;;;6.00;3.70;;;26.30;84.70;;;;;;5107313;28;20027;-50
2021/09/13 09:50:36;;;;;;;7.63;3.55;;;26.10;84.40;;;;;;5092423;28;20016;-48
2021/09/13 09:53:16;;;;;;;3.50;2.80;;;26.00;83.70;;;;;;5091850;28;20592;-52
2021/09/13 09:55:43;;;;;;;4.60;2.55;;;25.80;83.80;;;;;;5090977;28;20105;-50
2021/09/13 09:58:10;;;;;;;6.25;3.83;;;25.50;81.10;;;;;;5090221;28;20032;-48
2021/09/13 10:00:38;;;;;;;9.18;4.40;;;24.80;85.70;;;;;;5091248;28;20053;-47
2021/09/13 10:03:05;;;;;;;6.30;3.17;;;24.90;86.60;;;;;;5091145;28;20073;-50
2021/09/13 10:05:32;;;;;;;5.32;3.28;;;24.90;85.90;;;;;;5106683;28;20628;-48
2021/09/13 10:07:58;;;;;;;11.85;2.50;;;24.90;86.30;;;;;;5090373;28;20099;-51
2021/09/13 10:10:29;;;;;;;3.33;2.88;;;24.90;82.40;;;;;;5090948;28;20035;-50
2021/09/13 10:12:59;;;;;;;7.43;3.42;;;24.20;84.70;;;;;;5090880;28;20635;-49
2021/09/13 10:15:25;;;;;;;5.05;2.83;;;24.50;86.00;;;;;;5090744;28;20081;-51
2021/09/13 10:17:51;;;;;;;6.05;2.95;;;24.60;86.50;;;;;;5090265;28;20024;-47
2021/09/13 10:20:17;;;;;;;6.28;3.30;;;24.40;85.30;;;;;;5090699;28;20024;-48
2021/09/13 10:22:46;;;;;;;5.00;2.95;;;24.10;86.50;;;;;;5092826;28;20028;-47
2021/09/13 10:25:12;;;;;;;4.43;2.63;;;24.00;86.90;;;;;;5094900;28;20055;-50
2021/09/13 10:27:41;;;;;;;2.25;2.05;;;23.90;86.80;;;;;;5094103;28;20095;-50
2021/09/13 10:30:48;;;;;;;3.88;2.15;;;23.90;85.10;;;;;;5095048;28;20016;-46
2021/09/13 10:33:15;;;;;;;2.55;2.10;;;24.10;86.50;;;;;;5110292;28;20065;-50
2021/09/13 10:35:59;;;;;;;3.30;1.83;;;24.10;84.40;;;;;;5093433;28;20043;-47
2021/09/13 10:38:44;;;;;;;9.30;3.08;;;24.20;84.80;;;;;;5094165;28;20446;-48
2021/09/13 10:41:11;;;;;;;7.07;2.63;;;23.90;85.90;;;;;;5094545;28;20032;-51
2021/09/13 10:43:57;;;;;;;5.28;2.47;;;23.90;85.60;;;;;;5094430;28;20475;-47
2021/09/13 10:47:01;;;;;;;3.80;2.25;;;23.90;86.30;;;;;;5094538;28;20020;-47
2021/09/13 10:49:26;;;;;;;6.72;2.00;;;23.90;85.90;;;;;;5093887;28;20035;-51
2021/09/13 10:52:34;;;;;;;2.60;2.00;;;23.90;86.50;;;;;;5110370;28;20021;-50
2021/09/13 10:55:17;;;;;;;5.30;2.15;;;24.00;86.10;;;;;;5031610;28;20037;-49
2021/09/13 10:57:59;;;;;;;4.82;2.30;;;23.90;86.30;;;;;;5015049;28;20534;-48
2021/09/13 11:00:51;;;;;;;6.18;2.53;;;23.80;86.80;;;;;;5069637;28;20061;-52
2021/09/13 11:03:23;;;;;;;3.42;2.25;;;23.80;86.60;;;;;;5109582;28;20024;-48
2021/09/13 11:06:08;;;;;;;14.27;5.70;;;23.90;87.70;;;;;;5093901;28;20162;-49
2021/09/13 11:08:55;;;;;;;46.42;26.27;;;23.90;86.20;;;;;;5093343;28;20347;-48
2021/09/13 11:11:32;;;;;;;12.73;3.00;;;23.70;85.70;;;;;;5093673;28;20518;-53
2021/09/13 11:14:06;;;;;;;8.00;3.20;;;23.50;88.40;;;;;;5093675;28;20435;-48
2021/09/13 11:16:34;;;;;;;5.07;2.63;;;23.50;88.00;;;;;;5093109;28;20107;-52
2021/09/13 11:19:02;;;;;;;3.65;2.63;;;23.50;88.70;;;;;;5093224;28;20097;-50
2021/09/13 11:21:31;;;;;;;4.28;2.20;;;23.30;87.90;;;;;;5093485;28;20041;-51
2021/09/13 11:24:06;;;;;;;2.60;2.30;;;23.10;88.70;;;;;;5109120;28;20062;-48
2021/09/13 11:26:34;;;;;;;2.53;2.22;;;23.10;89.70;;;;;;5093263;28;20016;-51
2021/09/13 11:29:12;;;;;;;2.45;2.22;;;23.20;90.60;;;;;;5108944;28;20374;-48
2021/09/13 11:31:47;;;;;;;2.97;2.20;;;23.20;87.50;;;;;;5093393;28;20039;-52
2021/09/13 11:34:15;;;;;;;5.70;2.10;;;23.10;88.10;;;;;;5108162;28;20107;-50
2021/09/13 11:36:51;;;;;;;3.53;2.42;;;23.00;88.60;;;;;;5108877;28;20123;-50
2021/09/13 11:39:17;;;;;;;6.25;2.35;;;23.00;89.20;;;;;;5108616;28;20076;-50
2021/09/13 11:41:58;;;;;;;3.80;2.78;;;23.00;89.60;;;;;;5093231;28;20474;-48
2021/09/13 11:44:24;;;;;;;3.67;2.28;;;23.00;88.30;;;;;;5092980;28;20393;-53
2021/09/13 11:46:56;;;;;;;3.85;2.20;;;22.90;89.50;;;;;;5092750;28;20024;-53
2021/09/13 11:49:35;;;;;;;4.20;2.53;;;22.90;89.80;;;;;;5092988;28;20084;-47
2021/09/13 11:52:10;;;;;;;4.90;2.00;;;23.00;90.10;;;;;;5108862;28;20439;-50
2021/09/13 11:54:51;;;;;;;6.13;2.42;;;23.10;90.10;;;;;;5093039;28;20501;-46
2021/09/13 11:57:32;;;;;;;2.88;2.13;;;22.90;88.70;;;;;;5092455;28;20032;-45
2021/09/13 12:00:09;;;;;;;5.15;2.30;;;22.90;89.00;;;;;;5092959;28;20028;-51
2021/09/13 12:02:35;;;;;;;4.45;2.75;;;22.90;88.80;;;;;;5092885;28;20028;-52
2021/09/13 12:05:12;;;;;;;2.80;2.08;;;22.90;89.40;;;;;;5092762;28;20024;-51
2021/09/13 12:07:38;;;;;;;5.25;2.38;;;23.10;88.30;;;;;;5092595;28;20028;-50
2021/09/13 12:10:05;;;;;;;2.70;2.28;;;23.20;87.90;;;;;;5092601;28;20532;-47
2021/09/13 12:12:31;;;;;;;2.35;2.17;;;23.20;87.50;;;;;;5093103;28;20048;-47
2021/09/13 12:15:03;;;;;;;1.85;1.75;;;23.20;88.20;;;;;;5092703;28;20067;-50
2021/09/13 12:17:44;;;;;;;7.00;2.10;;;23.00;87.90;;;;;;5092231;28;20115;-51
2021/09/13 12:20:14;;;;;;;2.92;2.10;;;23.10;88.60;;;;;;5108135;28;20053;-50
2021/09/13 12:22:40;;;;;;;3.72;2.80;;;23.10;87.80;;;;;;5092231;28;20027;-47
2021/09/13 12:25:24;;;;;;;4.45;2.35;;;23.20;88.50;;;;;;5092391;28;20027;-51
2021/09/13 12:27:53;;;;;;;2.38;2.17;;;23.40;88.10;;;;;;5092228;28;20020;-47
2021/09/13 12:30:24;;;;;;;3.67;2.47;;;23.40;86.00;;;;;;5092053;28;20064;-51
2021/09/13 12:32:52;;;;;;;6.07;2.47;;;23.40;86.60;;;;;;5092302;28;20024;-46
2021/09/13 12:35:29;;;;;;;2.58;2.35;;;23.40;86.50;;;;;;5091963;28;20119;-50
2021/09/13 12:37:55;;;;;;;5.82;2.28;;;23.20;87.30;;;;;;5092356;28;20089;-52
2021/09/13 12:40:21;;;;;;;4.28;2.30;;;23.20;88.00;;;;;;5091664;28;20123;-45
2021/09/13 12:43:01;;;;;;;4.95;4.43;;;23.30;87.90;;;;;;5091750;28;20443;-51
2021/09/13 12:45:31;;;;;;;3.05;2.05;;;23.30;86.60;;;;;;5091881;28;20097;-48
2021/09/13 12:47:59;;;;;;;3.50;2.30;;;23.30;86.90;;;;;;5091990;28;20055;-50
2021/09/13 12:50:37;;;;;;;2.20;2.00;;;23.20;87.60;;;;;;5092096;28;20153;-48
2021/09/13 12:53:22;;;;;;;4.60;2.22;;;23.20;87.80;;;;;;5091762;28;20017;-50
2021/09/13 12:55:47;;;;;;;1.70;1.60;;;23.20;87.80;;;;;;5107192;28;20024;-49